createdAt,value
2019-01-27T00:01:13.218Z,98826.04
2019-01-27T00:03:43.048Z,98821.81
2019-01-27T00:06:12.598Z,98817.52
2019-01-27T00:08:42.241Z,98818.38
2019-01-27T00:11:11.724Z,98809.92
2019-01-27T00:13:41.277Z,98809.50
2019-01-27T00:16:10.841Z,98799.36
2019-01-27T00:18:40.326Z,98807.81
2019-01-27T00:21:09.799Z,98801.91
2019-01-27T00:23:39.292Z,98794.27
2019-01-27T00:26:08.854Z,98793.08
2019-01-27T00:28:38.343Z,98798.13
2019-01-27T00:31:07.829Z,98786.29
2019-01-27T00:33:37.308Z,98778.27
2019-01-27T00:36:06.866Z,98779.96
2019-01-27T00:38:36.367Z,98763.05
2019-01-27T00:41:05.919Z,98758.83
2019-01-27T00:43:35.488Z,98755.00
2019-01-27T00:46:05.074Z,98748.67
2019-01-27T00:48:34.556Z,98741.46
2019-01-27T00:51:04.120Z,98741.89
2019-01-27T00:53:34.585Z,98731.75
2019-01-27T00:56:04.266Z,98731.34
2019-01-27T00:58:33.740Z,98720.76
2019-01-27T01:01:03.704Z,98718.63
2019-01-27T01:03:33.186Z,98705.09
2019-01-27T01:06:03.992Z,98708.91
2019-01-27T01:08:33.535Z,98700.85
2019-01-27T01:11:03.996Z,98695.79
2019-01-27T01:13:33.466Z,98681.41
2019-01-27T01:16:02.941Z,98685.63
2019-01-27T01:18:32.411Z,98672.93
2019-01-27T01:21:01.897Z,98671.25
2019-01-27T01:23:31.442Z,98672.97
2019-01-27T01:26:01.078Z,98673.78
2019-01-27T01:28:30.555Z,98662.80
2019-01-27T01:31:00.027Z,98660.66
2019-01-27T01:33:29.498Z,98659.80
2019-01-27T01:35:59.052Z,98653.03
2019-01-27T01:38:28.520Z,98651.34
2019-01-27T01:40:58.001Z,98636.11
2019-01-27T01:43:27.472Z,98645.83
2019-01-27T01:45:56.967Z,98640.78
2019-01-27T01:48:27.511Z,98636.11
2019-01-27T01:50:57.007Z,98631.00
2019-01-27T01:53:26.495Z,98624.66
2019-01-27T01:55:56.011Z,98623.41
2019-01-27T01:58:25.559Z,98628.53
2019-01-27T02:00:55.035Z,98619.23
2019-01-27T02:03:24.574Z,98608.64
2019-01-27T02:05:54.057Z,98607.82
2019-01-27T02:08:23.550Z,98600.62
2019-01-27T02:10:53.049Z,98599.78
2019-01-27T02:13:22.548Z,98591.74
2019-01-27T02:16:05.917Z,98586.23
2019-01-27T02:18:35.919Z,98572.30
2019-01-27T02:21:06.238Z,98570.59
2019-01-27T02:23:35.854Z,98565.94
2019-01-27T02:26:06.787Z,98540.59
2019-01-27T02:28:36.374Z,98544.40
2019-01-27T02:31:06.501Z,98534.25
2019-01-27T02:33:35.975Z,98538.08
2019-01-27T02:36:05.835Z,98525.79
2019-01-27T02:38:35.304Z,98507.22
2019-01-27T02:41:05.071Z,98510.20
2019-01-27T02:43:34.639Z,98507.25
2019-01-27T02:46:04.391Z,98503.83
2019-01-27T02:48:33.858Z,98490.75
2019-01-27T02:51:03.338Z,98494.12
2019-01-27T02:53:32.810Z,98486.06
2019-01-27T02:56:02.291Z,98478.47
2019-01-27T02:58:31.753Z,98471.27
2019-01-27T03:01:01.255Z,98469.59
2019-01-27T03:03:30.727Z,98463.25
2019-01-27T03:06:05.966Z,98455.23
2019-01-27T03:08:39.009Z,98444.66
2019-01-27T03:11:08.502Z,98442.14
2019-01-27T03:13:38.052Z,98439.61
2019-01-27T03:16:07.602Z,98436.24
2019-01-27T03:18:37.088Z,98433.27
2019-01-27T03:21:06.550Z,98430.75
2019-01-27T03:23:36.037Z,98417.66
2019-01-27T03:26:05.661Z,98413.84
2019-01-27T03:28:35.172Z,98409.20
2019-01-27T03:31:04.705Z,98406.25
2019-01-27T03:33:34.194Z,98402.00
2019-01-27T03:36:03.691Z,98398.67
2019-01-27T03:38:33.187Z,98398.66
2019-01-27T03:41:02.810Z,98388.14
2019-01-27T03:43:32.306Z,98391.48
2019-01-27T03:46:01.780Z,98389.34
2019-01-27T03:48:31.267Z,98382.17
2019-01-27T03:51:00.748Z,98380.45
2019-01-27T03:53:30.255Z,98378.75
2019-01-27T03:55:59.757Z,98368.58
2019-01-27T03:58:29.235Z,98360.59
2019-01-27T04:00:59.839Z,98358.50
2019-01-27T04:03:29.317Z,98343.77
2019-01-27T04:05:58.802Z,98345.88
2019-01-27T04:08:28.300Z,98340.82
2019-01-27T04:10:57.774Z,98340.84
2019-01-27T04:13:27.251Z,98339.16
2019-01-27T04:15:56.722Z,98334.08
2019-01-27T04:18:26.281Z,98332.81
2019-01-27T04:20:55.788Z,98332.83
2019-01-27T04:23:25.360Z,98329.43
2019-01-27T04:25:54.834Z,98329.47
2019-01-27T04:28:24.317Z,98321.02
2019-01-27T04:30:53.784Z,98315.95
2019-01-27T04:33:23.283Z,98309.63
2019-01-27T04:35:52.755Z,98307.92
2019-01-27T04:38:22.242Z,98301.63
2019-01-27T04:40:51.708Z,98296.11
2019-01-27T04:43:21.200Z,98298.64
2019-01-27T04:45:50.698Z,98302.04
2019-01-27T04:48:20.184Z,98292.34
2019-01-27T04:50:49.674Z,98292.75
2019-01-27T04:53:19.160Z,98287.68
2019-01-27T04:55:48.640Z,98277.12
2019-01-27T04:58:18.169Z,98280.06
2019-01-27T05:00:47.669Z,98282.59
2019-01-27T05:03:48.347Z,98280.04
2019-01-27T05:06:17.844Z,98272.41
2019-01-27T05:08:47.327Z,98270.72
2019-01-27T05:11:16.802Z,98255.55
2019-01-27T05:13:46.277Z,98250.45
2019-01-27T05:16:15.776Z,98245.81
2019-01-27T05:18:45.531Z,98243.23
2019-01-27T05:21:15.062Z,98221.77
2019-01-27T05:23:44.510Z,98238.16
2019-01-27T05:26:13.998Z,98233.03
2019-01-27T05:28:43.504Z,98220.33
2019-01-27T05:31:12.985Z,98222.89
2019-01-27T05:33:43.435Z,98213.59
2019-01-27T05:36:12.925Z,98201.34
2019-01-27T05:38:42.412Z,98202.67
2019-01-27T05:41:11.888Z,98200.98
2019-01-27T05:43:41.384Z,98190.84
2019-01-27T05:46:10.863Z,98203.13
2019-01-27T05:48:41.109Z,98201.02
2019-01-27T05:51:10.610Z,98187.47
2019-01-27T05:53:40.079Z,98182.88
2019-01-27T05:56:09.564Z,98178.68
2019-01-27T05:58:39.035Z,98172.80
2019-01-27T06:01:08.511Z,98170.72
2019-01-27T06:03:37.994Z,98167.31
2019-01-27T06:06:07.496Z,98168.58
2019-01-27T06:08:37.953Z,98167.73
2019-01-27T06:11:07.442Z,98163.56
2019-01-27T06:13:36.924Z,98163.58
2019-01-27T06:16:06.407Z,98150.89
2019-01-27T06:18:35.890Z,98147.04
2019-01-27T06:21:05.489Z,98142.36
2019-01-27T06:23:35.057Z,98145.38
2019-01-27T06:26:04.567Z,98147.09
2019-01-27T06:28:34.057Z,98141.21
2019-01-27T06:31:03.617Z,98136.13
2019-01-27T06:33:40.897Z,98129.36
2019-01-27T06:36:10.366Z,98134.88
2019-01-27T06:38:39.918Z,98129.39
2019-01-27T06:41:09.390Z,98135.70
2019-01-27T06:43:38.900Z,98133.95
2019-01-27T06:46:08.413Z,98127.59
2019-01-27T06:48:37.906Z,98119.66
2019-01-27T06:51:07.387Z,98118.72
2019-01-27T06:53:37.451Z,98116.15
2019-01-27T06:56:07.026Z,98098.87
2019-01-27T06:58:54.278Z,98109.84
2019-01-27T07:01:31.304Z,98110.66
2019-01-27T07:04:18.861Z,98093.73
2019-01-27T07:06:56.831Z,98097.64
2019-01-27T07:09:36.739Z,98095.98
2019-01-27T07:12:43.486Z,98089.22
2019-01-27T07:15:30.810Z,98084.16
2019-01-27T07:18:09.985Z,98077.86
2019-01-27T07:20:57.409Z,98080.48
2019-01-27T07:23:44.886Z,98072.82
2019-01-27T07:26:36.231Z,98072.82
2019-01-27T07:29:31.283Z,98067.34
2019-01-27T07:32:25.987Z,98063.95
2019-01-27T07:35:08.255Z,98062.33
2019-01-27T07:37:44.966Z,98062.75
2019-01-27T07:40:36.520Z,98063.98
2019-01-27T07:43:24.209Z,98060.13
2019-01-27T07:46:11.688Z,98063.92
2019-01-27T07:48:58.915Z,98057.52
2019-01-27T07:51:42.308Z,98056.64
2019-01-27T07:54:20.088Z,98055.41
2019-01-27T07:57:07.252Z,98056.52
2019-01-27T07:59:51.257Z,98050.65
2019-01-27T08:02:42.815Z,98048.96
2019-01-27T08:05:23.242Z,98048.92
2019-01-27T08:08:02.076Z,98041.31
2019-01-27T08:10:40.396Z,98042.11
2019-01-27T08:13:27.894Z,98041.14
2019-01-27T08:16:25.716Z,98038.65
2019-01-27T08:19:06.953Z,98037.81
2019-01-27T08:21:46.121Z,98022.69
2019-01-27T08:24:36.267Z,98014.70
2019-01-27T08:27:25.142Z,98016.39
2019-01-27T08:30:01.700Z,98013.91
2019-01-27T08:32:49.155Z,98015.59
2019-01-27T08:35:26.431Z,98021.55
2019-01-27T08:38:09.031Z,98020.36
2019-01-27T08:40:46.005Z,98027.42
2019-01-27T08:43:34.568Z,98023.16
2019-01-27T08:46:26.923Z,98016.06
2019-01-27T08:48:56.466Z,98011.28
2019-01-27T08:51:25.969Z,98010.34
2019-01-27T08:53:55.485Z,98018.31
2019-01-27T08:56:24.982Z,98011.87
2019-01-27T08:58:54.468Z,98009.60
2019-01-27T09:01:34.950Z,98015.40
2019-01-27T09:04:11.151Z,98012.87
2019-01-27T09:07:12.223Z,98010.20
2019-01-27T09:10:03.560Z,98016.05
2019-01-27T09:12:52.813Z,98014.30
2019-01-27T09:15:50.550Z,97923.19
2019-01-27T09:18:43.182Z,98008.08
2019-01-27T09:21:21.665Z,98001.98
2019-01-27T09:24:10.371Z,98009.95
2019-01-27T09:26:50.320Z,98000.21
2019-01-27T09:29:44.887Z,97998.41
2019-01-27T09:32:25.320Z,97989.87
2019-01-27T09:35:21.518Z,97992.05
2019-01-27T09:38:13.152Z,97994.58
2019-01-27T09:41:00.605Z,97995.66
2019-01-27T09:43:48.033Z,97992.17
2019-01-27T09:46:33.573Z,97993.83
2019-01-27T09:49:11.410Z,97990.57
2019-01-27T09:51:54.075Z,97998.55
2019-01-27T09:54:40.475Z,97994.81
2019-01-27T09:57:44.184Z,97995.28
2019-01-27T10:00:37.136Z,97998.25
2019-01-27T10:03:41.074Z,97996.44
2019-01-27T10:06:32.184Z,97992.61
2019-01-27T10:09:19.386Z,97991.19
2019-01-27T10:12:06.695Z,97983.94
2019-01-27T10:14:49.252Z,97986.88
2019-01-27T10:17:40.664Z,97988.50
2019-01-27T10:20:22.445Z,97985.02
2019-01-27T10:23:09.910Z,97990.03
2019-01-27T10:25:46.846Z,97981.06
2019-01-27T10:28:35.183Z,97976.84
2019-01-27T10:31:10.352Z,97955.92
2019-01-27T10:34:01.889Z,97973.04
2019-01-27T10:36:48.950Z,97973.79
2019-01-27T10:39:37.478Z,97970.23
2019-01-27T10:42:18.815Z,97952.52
2019-01-27T10:45:10.526Z,97958.28
2019-01-27T10:48:00.014Z,97950.83
2019-01-27T10:50:45.192Z,97942.03
2019-01-27T10:53:25.531Z,97933.19
2019-01-27T10:56:01.183Z,97928.63
2019-01-27T10:58:47.365Z,97924.75
2019-01-27T11:01:30.812Z,97926.75
2019-01-27T11:04:31.685Z,97910.33
2019-01-27T11:07:19.056Z,97916.33
2019-01-27T11:10:10.737Z,97904.89
2019-01-27T11:13:00.770Z,97904.77
2019-01-27T11:15:41.038Z,97895.73
2019-01-27T11:18:38.679Z,97897.29
2019-01-27T11:21:14.353Z,97889.58
2019-01-27T11:24:15.069Z,97888.94
2019-01-27T11:27:03.459Z,97890.88
2019-01-27T11:29:49.342Z,97881.56
2019-01-27T11:32:44.932Z,97881.22
2019-01-27T11:35:23.058Z,97870.58
2019-01-27T11:38:02.988Z,97868.13
2019-01-27T11:40:50.188Z,97874.19
2019-01-27T11:43:41.498Z,97865.75
2019-01-27T11:46:17.388Z,97865.73
2019-01-27T11:49:08.751Z,97861.39
2019-01-27T11:51:45.586Z,97860.25
2019-01-27T11:54:15.097Z,97853.70
2019-01-27T11:56:44.638Z,97843.81
2019-01-27T11:59:14.349Z,97847.41
2019-01-27T12:01:43.845Z,97835.34
2019-01-27T12:04:13.364Z,97839.56
2019-01-27T12:06:44.843Z,97834.38
2019-01-27T12:09:14.499Z,97834.93
2019-01-27T12:11:44.012Z,97832.05
2019-01-27T12:14:13.493Z,97830.70
2019-01-27T12:16:42.997Z,97830.78
2019-01-27T12:19:12.473Z,97836.84
2019-01-27T12:21:42.953Z,97823.75
2019-01-27T12:24:12.441Z,97817.03
2019-01-27T12:26:41.958Z,97815.21
2019-01-27T12:29:11.452Z,97823.30
2019-01-27T12:31:40.981Z,97824.30
2019-01-27T12:34:10.468Z,97814.42
2019-01-27T12:36:39.940Z,97822.95
2019-01-27T12:39:10.225Z,97827.91
2019-01-27T12:41:39.728Z,97823.23
2019-01-27T12:44:09.220Z,97822.43
2019-01-27T12:46:38.807Z,97823.34
2019-01-27T12:49:08.300Z,97821.59
2019-01-27T12:51:37.818Z,97823.44
2019-01-27T12:54:08.402Z,97813.05
2019-01-27T12:56:37.980Z,97823.48
2019-01-27T12:59:07.477Z,97818.45
2019-01-27T13:01:37.025Z,97813.74
2019-01-27T13:04:06.587Z,97821.03
2019-01-27T13:06:36.086Z,97819.99
2019-01-27T13:09:08.004Z,97816.27
2019-01-27T13:11:37.573Z,97800.00
2019-01-27T13:14:07.159Z,97811.34
2019-01-27T13:16:36.652Z,97809.77
2019-01-27T13:19:06.124Z,97807.77
2019-01-27T13:21:35.639Z,97812.57
2019-01-27T13:24:05.189Z,97804.73
2019-01-27T13:26:35.746Z,97806.09
2019-01-27T13:29:05.248Z,97799.52
2019-01-27T13:31:34.743Z,97803.79
2019-01-27T13:34:04.285Z,97799.95
2019-01-27T13:36:33.776Z,97793.23
2019-01-27T13:39:03.931Z,97790.29
2019-01-27T13:41:34.587Z,97794.84
2019-01-27T13:44:04.177Z,97766.39
2019-01-27T13:46:33.692Z,97793.36
2019-01-27T13:49:03.166Z,97793.02
2019-01-27T13:51:32.689Z,97804.52
2019-01-27T13:54:02.191Z,97797.81
2019-01-27T13:56:31.768Z,97792.98
2019-01-27T13:59:01.247Z,97794.87
2019-01-27T14:01:30.784Z,97793.16
2019-01-27T14:04:00.262Z,97796.57
2019-01-27T14:06:29.732Z,97790.79
2019-01-27T14:08:59.225Z,97788.95
2019-01-27T14:11:28.699Z,97782.96
2019-01-27T14:13:58.178Z,97785.64
2019-01-27T14:16:27.643Z,97782.44
2019-01-27T14:18:57.401Z,97785.09
2019-01-27T14:21:26.932Z,97786.35
2019-01-27T14:23:56.412Z,97784.77
2019-01-27T14:26:25.901Z,97779.75
2019-01-27T14:28:55.381Z,97778.52
2019-01-27T14:31:24.843Z,97786.09
2019-01-27T14:33:54.337Z,97782.73
2019-01-27T14:36:23.884Z,97783.56
2019-01-27T14:38:53.375Z,97784.01
2019-01-27T14:41:22.857Z,97790.37
2019-01-27T14:43:52.366Z,97793.23
2019-01-27T14:46:21.861Z,97785.81
2019-01-27T14:48:51.387Z,97787.17
2019-01-27T14:51:20.898Z,97793.43
2019-01-27T14:53:50.436Z,97798.00
2019-01-27T14:56:19.935Z,97792.81
2019-01-27T14:58:49.436Z,97795.88
2019-01-27T15:01:19.087Z,97798.92
2019-01-27T15:03:48.564Z,97805.70
2019-01-27T15:06:18.905Z,97808.20
2019-01-27T15:08:48.381Z,97804.84
2019-01-27T15:11:17.852Z,97806.02
2019-01-27T15:13:47.336Z,97805.19
2019-01-27T15:16:16.820Z,97804.83
2019-01-27T15:18:46.404Z,97805.27
2019-01-27T15:21:22.672Z,97798.70
2019-01-27T15:23:52.173Z,97800.45
2019-01-27T15:26:21.652Z,97800.09
2019-01-27T15:28:51.152Z,97804.77
2019-01-27T15:31:20.833Z,97805.29
2019-01-27T15:33:50.344Z,97812.89
2019-01-27T15:36:19.826Z,97809.94
2019-01-27T15:38:49.446Z,97813.72
2019-01-27T15:41:18.923Z,97814.42
2019-01-27T15:43:48.937Z,97807.14
2019-01-27T15:46:18.623Z,97805.55
2019-01-27T15:48:49.073Z,97810.50
2019-01-27T15:51:18.559Z,97813.04
2019-01-27T15:53:48.038Z,97823.48
2019-01-27T15:56:17.523Z,97823.58
2019-01-27T15:58:47.018Z,97820.42
2019-01-27T16:01:17.056Z,97830.81
2019-01-27T16:03:46.708Z,97827.88
2019-01-27T16:06:16.193Z,97833.55
2019-01-27T16:08:45.683Z,97831.41
2019-01-27T16:11:15.271Z,97832.34
2019-01-27T16:13:44.845Z,97824.59
2019-01-27T16:16:14.336Z,97830.61
2019-01-27T16:18:43.881Z,97831.53
2019-01-27T16:21:13.494Z,97837.09
2019-01-27T16:23:55.642Z,97832.44
2019-01-27T16:26:25.343Z,97842.67
2019-01-27T16:28:54.898Z,97847.20
2019-01-27T16:31:52.588Z,97847.52
2019-01-27T16:34:27.761Z,97841.67
2019-01-27T16:36:57.382Z,97842.02
2019-01-27T16:39:26.890Z,97845.06
2019-01-27T16:41:57.345Z,97843.72
2019-01-27T16:44:27.914Z,97850.97
2019-01-27T16:46:57.464Z,97848.03
2019-01-27T16:49:26.946Z,97848.86
2019-01-27T16:51:57.395Z,97849.26
2019-01-27T16:54:26.907Z,97851.39
2019-01-27T16:56:56.744Z,97849.50
2019-01-27T16:59:26.628Z,97856.12
2019-01-27T17:01:58.999Z,97855.62
2019-01-27T17:04:27.363Z,97860.13
2019-01-27T17:06:56.852Z,97863.48
2019-01-27T17:09:26.344Z,97863.41
2019-01-27T17:11:55.876Z,97867.64
2019-01-27T17:14:25.345Z,97860.27
2019-01-27T17:16:54.815Z,97865.42
2019-01-27T17:19:24.385Z,97864.59
2019-01-27T17:21:53.883Z,97868.89
2019-01-27T17:24:23.420Z,97872.63
2019-01-27T17:26:53.018Z,97867.89
2019-01-27T17:29:22.982Z,97869.00
2019-01-27T17:31:52.540Z,97878.24
2019-01-27T17:34:22.047Z,97877.89
2019-01-27T17:36:52.570Z,97882.04
2019-01-27T17:39:22.070Z,97884.92
2019-01-27T17:41:51.569Z,97878.12
2019-01-27T17:44:21.303Z,97877.23
2019-01-27T17:46:50.813Z,97879.86
2019-01-27T17:49:20.335Z,97889.92
2019-01-27T17:51:49.923Z,97889.05
2019-01-27T17:54:19.417Z,97895.52
2019-01-27T17:56:58.558Z,97894.31
2019-01-27T17:59:34.619Z,97900.81
2019-01-27T18:02:24.669Z,97908.51
2019-01-27T18:05:06.348Z,97914.75
2019-01-27T18:07:54.874Z,97907.63
2019-01-27T18:10:42.600Z,97924.05
2019-01-27T18:13:15.845Z,97930.91
2019-01-27T18:15:45.330Z,97943.47
2019-01-27T18:18:14.861Z,97945.64
2019-01-27T18:20:44.414Z,97948.44
2019-01-27T18:23:13.958Z,97947.70
2019-01-27T18:25:43.461Z,97955.15
2019-01-27T18:28:12.926Z,97971.09
2019-01-27T18:30:42.609Z,97966.98
2019-01-27T18:33:12.108Z,97972.04
2019-01-27T18:35:41.579Z,97978.70
2019-01-27T18:38:11.267Z,97986.45
2019-01-27T18:40:40.864Z,97987.85
2019-01-27T18:43:10.346Z,98001.56
2019-01-27T18:45:40.050Z,98003.73
2019-01-27T18:48:09.662Z,98004.14
2019-01-27T18:50:39.354Z,98003.16
2019-01-27T18:53:20.738Z,98013.39
2019-01-27T18:56:09.515Z,98009.27
2019-01-27T18:59:03.774Z,98012.17
2019-01-27T19:01:55.193Z,98023.73
2019-01-27T19:04:30.331Z,98033.71
2019-01-27T19:07:17.704Z,98039.55
2019-01-27T19:10:12.863Z,98041.13
2019-01-27T19:13:01.393Z,98040.67
2019-01-27T19:15:49.259Z,98043.67
2019-01-27T19:18:50.258Z,98051.75
2019-01-27T19:21:31.720Z,98055.55
2019-01-27T19:24:27.839Z,98058.05
2019-01-27T19:27:12.673Z,98067.51
2019-01-27T19:29:59.861Z,98067.76
2019-01-27T19:32:39.634Z,98072.79
2019-01-27T19:35:31.410Z,98075.31
2019-01-27T19:38:07.426Z,98078.61
2019-01-27T19:40:45.212Z,98080.73
2019-01-27T19:43:26.612Z,98082.67
2019-01-27T19:46:01.914Z,98090.53
2019-01-27T19:48:53.338Z,98091.55
2019-01-27T19:51:33.508Z,98096.95
2019-01-27T19:54:19.512Z,98093.62
2019-01-27T19:57:05.513Z,98100.41
2019-01-27T19:59:52.838Z,98107.28
2019-01-27T20:02:53.510Z,98110.23
2019-01-27T20:05:32.380Z,98116.15
2019-01-27T20:08:39.392Z,98123.72
2019-01-27T20:11:40.168Z,98118.65
2019-01-27T20:14:32.562Z,98117.34
2019-01-27T20:17:19.800Z,98119.39
2019-01-27T20:20:04.144Z,98123.16
2019-01-27T20:22:39.566Z,98128.26
2019-01-27T20:25:27.230Z,98125.34
2019-01-27T20:28:21.738Z,98126.14
2019-01-27T20:30:59.999Z,98125.23
2019-01-27T20:33:46.128Z,98124.38
2019-01-27T20:36:40.874Z,98126.83
2019-01-27T20:39:32.522Z,98128.53
2019-01-27T20:42:17.682Z,98134.06
2019-01-27T20:45:02.772Z,98140.13
2019-01-27T20:47:42.704Z,98143.95
2019-01-27T20:50:19.300Z,98140.16
2019-01-27T20:53:17.228Z,98143.95
2019-01-27T20:56:04.817Z,98146.92
2019-01-27T20:58:50.588Z,98146.13
2019-01-27T21:01:42.204Z,98152.41
2019-01-27T21:04:46.105Z,98153.25
2019-01-27T21:07:24.414Z,98154.06
2019-01-27T21:09:59.375Z,98154.59
2019-01-27T21:12:47.905Z,98157.54
2019-01-27T21:15:26.009Z,98160.46
2019-01-27T21:18:13.522Z,98161.80
2019-01-27T21:20:43.065Z,98167.31
2019-01-27T21:23:12.663Z,98161.77
2019-01-27T21:25:42.195Z,98172.83
2019-01-27T21:28:11.757Z,98171.98
2019-01-27T21:30:41.293Z,98171.60
2019-01-27T21:33:10.890Z,98175.38
2019-01-27T21:35:40.376Z,98176.23
2019-01-27T21:38:09.867Z,98178.73
2019-01-27T21:40:39.383Z,98178.72
2019-01-27T21:43:08.867Z,98183.41
2019-01-27T21:45:38.349Z,98183.42
2019-01-27T21:48:07.852Z,98188.05
2019-01-27T21:50:37.444Z,98188.48
2019-01-27T21:53:07.029Z,98188.49
2019-01-27T21:55:36.624Z,98193.96
2019-01-27T21:58:06.187Z,98185.05
2019-01-27T22:00:35.692Z,98192.64
2019-01-27T22:03:05.368Z,98192.70
2019-01-27T22:05:34.888Z,98198.17
2019-01-27T22:08:04.467Z,98194.00
2019-01-27T22:10:34.048Z,98194.83
2019-01-27T22:13:03.536Z,98199.06
2019-01-27T22:15:33.038Z,98190.64
2019-01-27T22:18:02.577Z,98194.86
2019-01-27T22:20:32.106Z,98190.70
2019-01-27T22:23:01.712Z,98197.03
2019-01-27T22:25:32.266Z,98204.22
2019-01-27T22:28:01.741Z,98200.91
2019-01-27T22:30:32.106Z,98195.40
2019-01-27T22:33:01.579Z,98195.84
2019-01-27T22:35:31.056Z,98200.46
2019-01-27T22:38:00.594Z,98207.20
2019-01-27T22:40:30.091Z,98200.88
2019-01-27T22:42:59.599Z,98206.79
2019-01-27T22:45:29.123Z,98205.52
2019-01-27T22:47:58.615Z,98209.33
2019-01-27T22:50:28.112Z,98216.08
2019-01-27T22:52:57.604Z,98216.08
2019-01-27T22:55:27.113Z,98211.03
2019-01-27T22:57:56.621Z,98205.55
2019-01-27T23:00:54.228Z,98205.55
2019-01-27T23:03:23.877Z,98214.41
2019-01-27T23:05:54.334Z,98211.03
2019-01-27T23:08:23.974Z,98212.30
2019-01-27T23:10:53.503Z,98210.19
2019-01-27T23:13:23.046Z,98216.95
2019-01-27T23:15:52.534Z,98216.95
2019-01-27T23:18:22.082Z,98207.67
2019-01-27T23:20:51.556Z,98215.67
2019-01-27T23:23:21.119Z,98221.56
2019-01-27T23:25:51.568Z,98219.87
2019-01-27T23:28:21.061Z,98223.25
2019-01-27T23:30:50.535Z,98221.98
2019-01-27T23:33:20.012Z,98227.91
2019-01-27T23:35:49.494Z,98231.67
2019-01-27T23:38:19.051Z,98224.10
2019-01-27T23:40:48.532Z,98223.28
2019-01-27T23:43:18.031Z,98221.98
2019-01-27T23:45:47.590Z,98227.91
2019-01-27T23:48:17.085Z,98228.75
2019-01-27T23:50:46.634Z,98228.31
2019-01-27T23:53:16.116Z,98227.45
2019-01-27T23:55:45.590Z,98226.20
2019-01-27T23:58:15.139Z,98227.05
